Jonesboro Heights, North Carolina
Current Conditions -  °F | °C
As of 5:55 PM on Thursday 23 Oct 2014 (Local Time) from KTTA Reporting Station
Clear Clear  
Wind Chill: 68°   Ceiling: Unl
Heat Index: 68°   Visibility: 10mi
Dew Point: 44°   Wind: 6mph
Humidity: 42%   Direction: 310°NW
Pressure: 29.94"   Gusts: NA
Location:  35.493°N, 79.1765°W
Report Text: KTTA 232155Z AUTO 31005KT 10SM CLR 20/07 A2994 RMK AO2 T01990065
Loading
Personal Weather Stations






























Interactive Weather Map
Tropical Storm Tracking
New forecast layout! Learn more

10-Day Weather Forecast

Advertisements
Track Severe Weather on mobile